Time,TemperatureF,DewpointF,PressureIn,WindDirection,WindDirectionDegrees,WindSpeedMPH,WindSpeedGustMPH,Humidity,HourlyPrecipIn,Conditions,Clouds,dailyrainin,SoftwareType,DateUTC
2013-03-06 00:02:00,43.0,21.0,30.37,NNW,327,0.0,2.0,41,0.00,,,0.00,,2013-03-06 06:02:00,
2013-03-06 00:11:00,43.0,21.0,30.37,NNW,327,0.0,2.0,41,0.00,,,0.00,,2013-03-06 06:11:00,
2013-03-06 00:22:00,43.0,22.0,30.37,NNW,327,1.0,5.0,42,0.00,,,0.00,,2013-03-06 06:22:00,
2013-03-06 00:31:00,43.0,22.0,30.37,NNW,327,3.0,6.0,43,0.00,,,0.00,,2013-03-06 06:31:00,
2013-03-06 00:42:00,43.0,22.0,30.37,NNW,327,3.0,6.0,43,0.00,,,0.00,,2013-03-06 06:42:00,
2013-03-06 00:52:00,43.0,22.0,30.38,NNW,327,4.0,6.0,43,0.00,,,0.00,,2013-03-06 06:52:00,
2013-03-06 01:01:00,42.0,21.0,30.38,NNW,327,3.0,6.0,43,0.00,,,0.00,,2013-03-06 07:01:00,
2013-03-06 01:11:00,42.0,21.0,30.38,NNW,327,3.0,6.0,43,0.00,,,0.00,,2013-03-06 07:11:00,
2013-03-06 01:22:00,42.0,21.0,30.38,NNW,328,3.0,8.0,43,0.00,,,0.00,,2013-03-06 07:22:00,
2013-03-06 01:31:00,42.0,22.0,30.38,NW,326,0.0,5.0,44,0.00,,,0.00,,2013-03-06 07:31:00,
2013-03-06 01:42:00,42.0,22.0,30.38,NW,326,0.0,5.0,44,0.00,,,0.00,,2013-03-06 07:42:00,
2013-03-06 01:52:00,41.0,21.0,30.39,NNW,327,1.0,6.0,45,0.00,,,0.00,,2013-03-06 07:52:00,
2013-03-06 02:01:00,41.0,22.0,30.39,NNW,327,3.0,6.0,46,0.00,,,0.00,,2013-03-06 08:01:00,
2013-03-06 02:11:00,41.0,22.0,30.39,NNW,327,3.0,6.0,46,0.00,,,0.00,,2013-03-06 08:11:00,
2013-03-06 02:21:00,40.0,21.0,30.40,NNW,327,0.0,6.0,47,0.00,,,0.00,,2013-03-06 08:21:00,
2013-03-06 02:31:00,40.0,22.0,30.39,NNW,327,0.0,0.0,48,0.00,,,0.00,,2013-03-06 08:31:00,
2013-03-06 02:42:00,40.0,22.0,30.39,NNW,327,0.0,0.0,48,0.00,,,0.00,,2013-03-06 08:42:00,
2013-03-06 02:52:00,39.0,22.0,30.38,NNW,327,0.0,3.0,50,0.00,,,0.00,,2013-03-06 08:52:00,
2013-03-06 03:01:00,39.0,22.0,30.38,NNW,327,0.0,3.0,51,0.00,,,0.00,,2013-03-06 09:01:00,
2013-03-06 03:12:00,39.0,22.0,30.38,NNW,327,0.0,3.0,51,0.00,,,0.00,,2013-03-06 09:12:00,
2013-03-06 03:21:00,38.0,22.0,30.38,NNW,327,2.0,6.0,52,0.00,,,0.00,,2013-03-06 09:21:00,
2013-03-06 03:31:00,38.0,22.0,30.37,NNW,327,1.0,3.0,53,0.00,,,0.00,,2013-03-06 09:31:00,
2013-03-06 03:42:00,38.0,22.0,30.37,NNW,327,1.0,3.0,53,0.00,,,0.00,,2013-03-06 09:42:00,
2013-03-06 03:52:00,38.0,23.0,30.37,NNW,327,1.0,3.0,54,0.00,,,0.00,,2013-03-06 09:52:00,
2013-03-06 04:01:00,37.0,22.0,30.37,NNW,327,2.0,5.0,55,0.00,,,0.00,,2013-03-06 10:01:00,
2013-03-06 04:11:00,37.0,22.0,30.37,NNW,327,2.0,5.0,55,0.00,,,0.00,,2013-03-06 10:11:00,
2013-03-06 04:21:00,37.0,23.0,30.38,NNW,327,0.0,1.0,56,0.00,,,0.00,,2013-03-06 10:21:00,
2013-03-06 04:31:00,36.0,22.0,30.37,NNW,327,0.0,0.0,57,0.00,,,0.00,,2013-03-06 10:31:00,
2013-03-06 04:42:00,36.0,22.0,30.37,NNW,327,0.0,0.0,57,0.00,,,0.00,,2013-03-06 10:42:00,
2013-03-06 04:52:00,36.0,23.0,30.37,NNW,327,0.0,0.0,58,0.00,,,0.00,,2013-03-06 10:52:00,
2013-03-06 05:02:00,36.0,23.0,30.38,NNW,327,0.0,0.0,60,0.00,,,0.00,,2013-03-06 11:02:00,
2013-03-06 05:11:00,36.0,23.0,30.38,NNW,327,0.0,0.0,60,0.00,,,0.00,,2013-03-06 11:11:00,
2013-03-06 05:22:00,35.0,23.0,30.39,NNW,327,0.0,0.0,61,0.00,,,0.00,,2013-03-06 11:22:00,
2013-03-06 05:32:00,35.0,23.0,30.39,NNW,327,0.0,0.0,62,0.00,,,0.00,,2013-03-06 11:32:00,
2013-03-06 05:42:00,35.0,23.0,30.39,NNW,327,0.0,0.0,62,0.00,,,0.00,,2013-03-06 11:42:00,
2013-03-06 05:52:00,34.0,23.0,30.40,NNW,327,0.0,0.0,64,0.00,,,0.00,,2013-03-06 11:52:00,
2013-03-06 06:02:00,33.0,23.0,30.40,NNW,327,0.0,0.0,66,0.00,,,0.00,,2013-03-06 12:02:00,
2013-03-06 06:11:00,33.0,23.0,30.40,NNW,327,0.0,0.0,66,0.00,,,0.00,,2013-03-06 12:11:00,
2013-03-06 06:21:00,33.0,23.0,30.40,NNW,327,0.0,0.0,67,0.00,,,0.00,,2013-03-06 12:21:00,
2013-03-06 06:32:00,33.0,24.0,30.41,NNW,327,0.0,0.0,69,0.00,,,0.00,,2013-03-06 12:32:00,
2013-03-06 06:42:00,33.0,24.0,30.41,NNW,327,0.0,0.0,69,0.00,,,0.00,,2013-03-06 12:42:00,
2013-03-06 06:52:00,34.0,24.0,30.41,NNW,327,0.0,0.0,66,0.00,,,0.00,,2013-03-06 12:52:00,
2013-03-06 07:02:00,33.0,24.0,30.42,NNW,327,0.0,0.0,68,0.00,,,0.00,,2013-03-06 13:02:00,
2013-03-06 07:11:00,33.0,24.0,30.42,NNW,327,0.0,0.0,68,0.00,,,0.00,,2013-03-06 13:11:00,
2013-03-06 07:22:00,33.0,24.0,30.42,NNW,327,0.0,0.0,70,0.00,,,0.00,,2013-03-06 13:22:00,
2013-03-06 07:32:00,33.0,24.0,30.42,NNW,327,0.0,0.0,69,0.00,,,0.00,,2013-03-06 13:32:00,
2013-03-06 07:42:00,33.0,24.0,30.42,NNW,327,0.0,0.0,69,0.00,,,0.00,,2013-03-06 13:42:00,
2013-03-06 07:52:00,34.0,24.0,30.43,NNW,327,3.0,6.0,67,0.00,,,0.00,,2013-03-06 13:52:00,
2013-03-06 08:01:00,35.0,25.0,30.43,NNW,327,1.0,6.0,66,0.00,,,0.00,,2013-03-06 14:01:00,
2013-03-06 08:11:00,35.0,25.0,30.43,NNW,327,1.0,6.0,66,0.00,,,0.00,,2013-03-06 14:11:00,
2013-03-06 08:22:00,36.0,25.0,30.44,NNW,327,0.0,0.0,64,0.00,,,0.00,,2013-03-06 14:22:00,
2013-03-06 08:32:00,38.0,26.0,30.45,NNW,327,0.0,2.0,61,0.00,,,0.00,,2013-03-06 14:32:00,
2013-03-06 08:42:00,40.0,26.0,30.46,NNW,333,3.0,7.0,56,0.00,,,0.00,,2013-03-06 14:42:00,
2013-03-06 08:52:00,40.0,26.0,30.46,NNW,333,3.0,7.0,56,0.00,,,0.00,,2013-03-06 14:52:00,
2013-03-06 09:02:00,41.0,24.0,30.46,NE,53,7.0,13.0,50,0.00,,,0.00,,2013-03-06 15:02:00,
2013-03-06 09:11:00,41.0,24.0,30.46,NE,53,7.0,13.0,50,0.00,,,0.00,,2013-03-06 15:11:00,
2013-03-06 09:21:00,42.0,24.0,30.46,ENE,59,6.0,10.0,48,0.00,,,0.00,,2013-03-06 15:21:00,
2013-03-06 09:32:00,42.0,23.0,30.46,NE,51,4.0,10.0,47,0.00,,,0.00,,2013-03-06 15:32:00,
2013-03-06 09:42:00,42.0,23.0,30.46,NE,51,4.0,10.0,47,0.00,,,0.00,,2013-03-06 15:42:00,
2013-03-06 09:52:00,44.0,24.0,30.45,NE,55,3.0,8.0,45,0.00,,,0.00,,2013-03-06 15:52:00,
2013-03-06 10:01:00,45.0,24.0,30.45,NE,45,2.0,8.0,43,0.00,,,0.00,,2013-03-06 16:01:00,
2013-03-06 10:11:00,45.0,24.0,30.45,NE,45,2.0,8.0,43,0.00,,,0.00,,2013-03-06 16:11:00,
2013-03-06 10:21:00,45.0,23.0,30.45,NE,53,2.0,9.0,42,0.00,,,0.00,,2013-03-06 16:21:00,
2013-03-06 10:32:00,46.0,24.0,30.44,NE,51,2.0,5.0,42,0.00,,,0.00,,2013-03-06 16:32:00,
2013-03-06 10:42:00,46.0,24.0,30.44,NE,51,2.0,5.0,42,0.00,,,0.00,,2013-03-06 16:42:00,
2013-03-06 10:52:00,47.0,24.0,30.45,ENE,64,1.0,7.0,40,0.00,,,0.00,,2013-03-06 16:52:00,
2013-03-06 11:01:00,48.0,23.0,30.45,ENE,61,0.0,3.0,37,0.00,,,0.00,,2013-03-06 17:01:00,
2013-03-06 11:11:00,48.0,23.0,30.45,ENE,61,0.0,3.0,37,0.00,,,0.00,,2013-03-06 17:11:00,
2013-03-06 11:21:00,49.0,23.0,30.44,ENE,60,2.0,5.0,35,0.00,,,0.00,,2013-03-06 17:21:00,
2013-03-06 11:32:00,50.0,23.0,30.43,NE,40,1.0,6.0,34,0.00,,,0.00,,2013-03-06 17:32:00,
2013-03-06 11:41:00,50.0,23.0,30.43,NE,40,1.0,6.0,34,0.00,,,0.00,,2013-03-06 17:41:00,
2013-03-06 11:52:00,52.0,22.0,30.43,NE,46,1.0,3.0,31,0.00,,,0.00,,2013-03-06 17:52:00,
2013-03-06 12:02:00,52.0,23.0,30.42,ENE,76,1.0,5.0,32,0.00,,,0.00,,2013-03-06 18:02:00,
2013-03-06 12:28:00,53.0,22.0,30.41,ENE,64,1.0,6.0,29,0.00,,,0.00,,2013-03-06 18:28:00,
2013-03-06 12:42:00,54.0,23.0,30.41,East,84,3.0,7.0,30,0.00,,,0.00,,2013-03-06 18:42:00,
2013-03-06 12:52:00,55.0,21.0,30.39,ESE,110,1.0,8.0,26,0.00,,,0.00,,2013-03-06 18:52:00,
2013-03-06 13:02:00,56.0,21.0,30.39,East,87,3.0,7.0,25,0.00,,,0.00,,2013-03-06 19:02:00,
2013-03-06 13:11:00,56.0,21.0,30.39,East,87,3.0,7.0,25,0.00,,,0.00,,2013-03-06 19:11:00,
2013-03-06 13:21:00,56.0,21.0,30.38,ESE,105,0.0,3.0,25,0.00,,,0.00,,2013-03-06 19:21:00,
2013-03-06 13:32:00,57.0,20.0,30.37,East,95,0.0,1.0,23,0.00,,,0.00,,2013-03-06 19:32:00,
2013-03-06 13:43:00,57.0,20.0,30.37,East,95,0.0,1.0,23,0.00,,,0.00,,2013-03-06 19:43:00,
2013-03-06 13:52:00,58.0,19.0,30.35,ENE,57,4.0,8.0,22,0.00,,,0.00,,2013-03-06 19:52:00,
2013-03-06 14:02:00,57.0,17.0,30.33,NE,53,1.0,3.0,21,0.00,,,0.00,,2013-03-06 20:02:00,
2013-03-06 14:11:00,57.0,17.0,30.33,NE,53,1.0,3.0,21,0.00,,,0.00,,2013-03-06 20:11:00,
2013-03-06 14:22:00,58.0,16.0,30.32,NE,53,4.0,8.0,19,0.00,,,0.00,,2013-03-06 20:22:00,
2013-03-06 14:32:00,58.0,15.0,30.31,NE,50,2.0,3.0,18,0.00,,,0.00,,2013-03-06 20:32:00,
2013-03-06 14:42:00,58.0,15.0,30.31,NE,50,2.0,3.0,18,0.00,,,0.00,,2013-03-06 20:42:00,
2013-03-06 14:53:00,58.0,17.0,30.30,NE,51,1.0,6.0,20,0.00,,,0.00,,2013-03-06 20:53:00,
2013-03-06 15:02:00,60.0,20.0,30.29,ESE,109,4.0,9.0,21,0.00,,,0.00,,2013-03-06 21:02:00,
2013-03-06 15:11:00,60.0,20.0,30.29,ESE,109,4.0,9.0,21,0.00,,,0.00,,2013-03-06 21:11:00,
2013-03-06 15:22:00,61.0,18.0,30.27,ENE,57,1.0,8.0,19,0.00,,,0.00,,2013-03-06 21:22:00,
2013-03-06 15:32:00,61.0,18.0,30.27,ESE,121,4.0,9.0,19,0.00,,,0.00,,2013-03-06 21:32:00,
2013-03-06 15:42:00,61.0,18.0,30.27,ESE,121,4.0,9.0,19,0.00,,,0.00,,2013-03-06 21:42:00,
2013-03-06 15:52:00,61.0,17.0,30.27,SE,128,3.0,6.0,18,0.00,,,0.00,,2013-03-06 21:52:00,
2013-03-06 16:01:00,61.0,16.0,30.27,SE,131,0.0,5.0,17,0.00,,,0.00,,2013-03-06 22:01:00,
2013-03-06 16:11:00,61.0,16.0,30.27,SE,131,0.0,5.0,17,0.00,,,0.00,,2013-03-06 22:11:00,
2013-03-06 16:21:00,61.0,16.0,30.25,SE,130,0.0,1.0,17,0.00,,,0.00,,2013-03-06 22:21:00,
2013-03-06 16:32:00,61.0,18.0,30.24,ESE,107,0.0,2.0,19,0.00,,,0.00,,2013-03-06 22:32:00,
2013-03-06 16:41:00,61.0,18.0,30.24,ESE,107,0.0,2.0,19,0.00,,,0.00,,2013-03-06 22:41:00,
2013-03-06 16:52:00,61.0,22.0,30.24,East,81,1.0,6.0,22,0.00,,,0.00,,2013-03-06 22:52:00,
2013-03-06 17:01:00,61.0,23.0,30.24,East,101,2.0,7.0,23,0.00,,,0.00,,2013-03-06 23:01:00,
2013-03-06 17:11:00,61.0,23.0,30.24,East,101,2.0,7.0,23,0.00,,,0.00,,2013-03-06 23:11:00,
2013-03-06 17:21:00,60.0,22.0,30.24,ESE,112,1.0,6.0,23,0.00,,,0.00,,2013-03-06 23:21:00,
2013-03-06 17:32:00,60.0,22.0,30.24,ESE,118,0.0,5.0,23,0.00,,,0.00,,2013-03-06 23:32:00,
2013-03-06 17:42:00,60.0,21.0,30.24,ESE,111,1.0,3.0,22,0.00,,,0.00,,2013-03-06 23:42:00,
2013-03-06 17:52:00,60.0,21.0,30.24,ESE,111,1.0,3.0,22,0.00,,,0.00,,2013-03-06 23:52:00,
2013-03-06 18:01:00,60.0,21.0,30.23,ESE,111,0.0,2.0,22,0.00,,,0.00,,2013-03-07 00:01:00,
2013-03-06 18:11:00,60.0,21.0,30.23,ESE,111,0.0,2.0,22,0.00,,,0.00,,2013-03-07 00:11:00,
2013-03-06 18:21:00,59.0,22.0,30.23,ESE,114,2.0,6.0,24,0.00,,,0.00,,2013-03-07 00:21:00,
2013-03-06 18:32:00,58.0,22.0,30.23,ESE,123,2.0,8.0,25,0.00,,,0.00,,2013-03-07 00:32:00,
2013-03-06 18:41:00,58.0,22.0,30.23,ESE,123,2.0,8.0,25,0.00,,,0.00,,2013-03-07 00:41:00,
2013-03-06 18:52:00,58.0,23.0,30.23,SE,126,3.0,7.0,26,0.00,,,0.00,,2013-03-07 00:52:00,
2013-03-06 19:01:00,57.0,22.0,30.23,SE,127,3.0,8.0,26,0.00,,,0.00,,2013-03-07 01:01:00,
2013-03-06 19:11:00,57.0,22.0,30.23,SE,127,3.0,8.0,26,0.00,,,0.00,,2013-03-07 01:11:00,
2013-03-06 19:21:00,57.0,22.0,30.23,SE,128,3.0,6.0,26,0.00,,,0.00,,2013-03-07 01:21:00,
2013-03-06 19:31:00,56.0,23.0,30.23,SE,130,4.0,9.0,27,0.00,,,0.00,,2013-03-07 01:31:00,
2013-03-06 19:41:00,56.0,23.0,30.23,SE,130,4.0,9.0,27,0.00,,,0.00,,2013-03-07 01:41:00,
2013-03-06 19:52:00,56.0,23.0,30.23,SE,127,3.0,7.0,28,0.00,,,0.00,,2013-03-07 01:52:00,
2013-03-06 20:01:00,55.0,23.0,30.24,SE,130,3.0,7.0,29,0.00,,,0.00,,2013-03-07 02:01:00,
2013-03-06 20:11:00,55.0,23.0,30.24,SE,130,3.0,7.0,29,0.00,,,0.00,,2013-03-07 02:11:00,
2013-03-06 20:21:00,55.0,23.0,30.23,SE,131,2.0,5.0,28,0.00,,,0.00,,2013-03-07 02:21:00,
2013-03-06 20:31:00,54.0,22.0,30.22,SE,132,1.0,7.0,28,0.00,,,0.00,,2013-03-07 02:31:00,
2013-03-06 20:41:00,54.0,22.0,30.22,SE,132,1.0,7.0,28,0.00,,,0.00,,2013-03-07 02:41:00,
2013-03-06 20:52:00,54.0,22.0,30.22,SE,132,1.0,7.0,28,0.00,,,0.00,,2013-03-07 02:52:00,
2013-03-06 21:01:00,53.0,22.0,30.21,SE,133,5.0,9.0,30,0.00,,,0.00,,2013-03-07 03:01:00,
2013-03-06 21:11:00,53.0,23.0,30.21,SE,137,6.0,9.0,31,0.00,,,0.00,,2013-03-07 03:11:00,
2013-03-06 21:21:00,53.0,23.0,30.21,SE,137,6.0,9.0,31,0.00,,,0.00,,2013-03-07 03:21:00,
2013-03-06 21:32:00,52.0,22.0,30.21,SE,141,5.0,9.0,31,0.00,,,0.00,,2013-03-07 03:32:00,
2013-03-06 21:42:00,52.0,22.0,30.21,SE,141,5.0,9.0,31,0.00,,,0.00,,2013-03-07 03:42:00,
2013-03-06 21:52:00,52.0,24.0,30.21,SE,136,3.0,7.0,33,0.00,,,0.00,,2013-03-07 03:52:00,
2013-03-06 22:01:00,52.0,25.0,30.21,SE,140,4.0,10.0,34,0.00,,,0.00,,2013-03-07 04:01:00,
2013-03-06 22:11:00,52.0,25.0,30.21,SE,140,4.0,10.0,34,0.00,,,0.00,,2013-03-07 04:11:00,
2013-03-06 22:21:00,51.0,24.0,30.21,SE,140,4.0,8.0,35,0.00,,,0.00,,2013-03-07 04:21:00,
2013-03-06 22:31:00,50.0,24.0,30.21,SE,141,3.0,7.0,36,0.00,,,0.00,,2013-03-07 04:31:00,
2013-03-06 22:42:00,50.0,24.0,30.21,SE,141,3.0,7.0,36,0.00,,,0.00,,2013-03-07 04:42:00,
2013-03-06 22:52:00,50.0,25.0,30.20,SE,140,3.0,7.0,37,0.00,,,0.00,,2013-03-07 04:52:00,
2013-03-06 23:01:00,49.0,25.0,30.20,SE,140,4.0,7.0,38,0.00,,,0.00,,2013-03-07 05:01:00,
2013-03-06 23:12:00,49.0,25.0,30.20,SE,140,4.0,7.0,38,0.00,,,0.00,,2013-03-07 05:12:00,
2013-03-06 23:22:00,49.0,24.0,30.20,SE,139,2.0,7.0,37,0.00,,,0.00,,2013-03-07 05:22:00,
2013-03-06 23:32:00,49.0,24.0,30.20,SE,139,4.0,7.0,37,0.00,,,0.00,,2013-03-07 05:32:00,
2013-03-06 23:42:00,49.0,24.0,30.20,SE,139,4.0,7.0,37,0.00,,,0.00,,2013-03-07 05:42:00,
2013-03-06 23:52:00,48.0,23.0,30.20,SE,139,2.0,3.0,37,0.00,,,0.00,,2013-03-07 05:52:00,